createdAt,value
2023-05-05T00:00:07.861Z,42.54
2023-05-05T00:01:07.680Z,40.93
2023-05-05T00:02:08.395Z,44.63
2023-05-05T00:03:07.763Z,44.63
2023-05-05T00:04:07.703Z,42.54
2023-05-05T00:05:07.660Z,41.57
2023-05-05T00:06:07.642Z,39.64
2023-05-05T00:07:07.659Z,40.77
2023-05-05T00:08:07.661Z,42.38
2023-05-05T00:09:07.623Z,42.54
2023-05-05T00:10:07.891Z,38.03
2023-05-05T00:11:07.615Z,40.61
2023-05-05T00:12:07.617Z,44.96
2023-05-05T00:13:07.624Z,43.83
2023-05-05T00:14:07.582Z,39.96
2023-05-05T00:15:07.585Z,39.48
2023-05-05T00:16:07.577Z,40.77
2023-05-05T00:17:07.642Z,42.06
2023-05-05T00:18:07.725Z,40.44
2023-05-05T00:19:07.572Z,40.28
2023-05-05T00:20:07.797Z,38.83
2023-05-05T00:21:07.578Z,39.64
2023-05-05T00:22:07.548Z,39.64
2023-05-05T00:23:07.542Z,42.86
2023-05-05T00:24:07.509Z,46.08
2023-05-05T00:25:07.506Z,42.86
2023-05-05T00:26:07.522Z,38.83
2023-05-05T00:27:07.491Z,39.32
2023-05-05T00:28:07.500Z,39.48
2023-05-05T00:29:07.477Z,44.47
2023-05-05T00:30:07.639Z,43.99
2023-05-05T00:31:07.550Z,42.38
2023-05-05T00:32:07.464Z,43.18
2023-05-05T00:33:07.478Z,39.80
2023-05-05T00:34:07.444Z,39.96
2023-05-05T00:35:07.474Z,42.70
2023-05-05T00:36:07.458Z,39.32
2023-05-05T00:37:07.430Z,38.35
2023-05-05T00:38:07.412Z,38.67
2023-05-05T00:39:07.412Z,42.54
2023-05-05T00:40:07.596Z,44.31
2023-05-05T00:41:07.384Z,40.12
2023-05-05T00:42:07.383Z,43.02
2023-05-05T00:43:07.384Z,39.64
2023-05-05T00:44:07.404Z,39.80
2023-05-05T00:45:07.383Z,38.99
2023-05-05T00:46:07.410Z,40.61
2023-05-05T00:47:07.346Z,39.48
2023-05-05T00:48:07.366Z,41.09
2023-05-05T00:49:07.387Z,40.93
2023-05-05T00:50:07.491Z,41.73
2023-05-05T00:51:07.308Z,42.22
2023-05-05T00:52:07.343Z,42.86
2023-05-05T00:53:07.302Z,44.15
2023-05-05T00:54:07.311Z,42.86
2023-05-05T00:55:07.343Z,44.31
2023-05-05T00:56:07.272Z,43.34
2023-05-05T00:57:07.271Z,41.57
2023-05-05T00:58:07.258Z,40.28
2023-05-05T00:59:07.300Z,39.80
2023-05-05T01:00:07.416Z,39.64
2023-05-05T01:01:07.268Z,39.96
2023-05-05T01:02:07.235Z,40.44
2023-05-05T01:03:07.325Z,40.93
2023-05-05T01:04:07.283Z,39.96
2023-05-05T01:05:07.219Z,40.28
2023-05-05T01:06:07.196Z,40.93
2023-05-05T01:07:07.188Z,40.44
2023-05-05T01:08:07.225Z,40.44
2023-05-05T01:09:07.170Z,40.44
2023-05-05T01:10:19.102Z,40.93
2023-05-05T01:11:09.150Z,40.61
2023-05-05T01:12:07.145Z,40.93
2023-05-05T01:13:07.247Z,43.99
2023-05-05T01:14:07.141Z,42.54
2023-05-05T01:15:07.124Z,43.02
2023-05-05T01:16:07.130Z,44.79
2023-05-05T01:17:07.114Z,43.34
2023-05-05T01:18:07.185Z,41.89
2023-05-05T01:19:07.105Z,42.38
2023-05-05T01:20:07.272Z,40.12
2023-05-05T01:21:07.111Z,40.44
2023-05-05T01:22:07.309Z,39.48
2023-05-05T01:23:08.102Z,40.77
2023-05-05T01:24:07.092Z,43.34
2023-05-05T01:25:07.053Z,45.28
2023-05-05T01:26:07.093Z,39.96
2023-05-05T01:27:07.066Z,43.67
2023-05-05T01:28:07.035Z,42.22
2023-05-05T01:29:07.026Z,43.34
2023-05-05T01:30:07.298Z,40.93
2023-05-05T01:31:07.005Z,39.64
2023-05-05T01:32:07.038Z,40.61
2023-05-05T01:33:06.989Z,40.44
2023-05-05T01:34:06.992Z,40.44
2023-05-05T01:35:06.970Z,40.44
2023-05-05T01:36:06.987Z,40.77
2023-05-05T01:37:06.981Z,40.28
2023-05-05T01:38:06.950Z,46.73
2023-05-05T01:39:07.423Z,46.08
2023-05-05T01:40:07.162Z,40.61
2023-05-05T01:41:06.976Z,38.99
2023-05-05T01:42:06.922Z,39.96
2023-05-05T01:43:06.923Z,40.44
2023-05-05T01:44:06.904Z,39.80
2023-05-05T01:45:06.898Z,40.77
2023-05-05T01:46:06.973Z,40.28
2023-05-05T01:47:06.878Z,39.32
2023-05-05T01:48:06.882Z,39.80
2023-05-05T01:49:06.875Z,39.80
2023-05-05T01:50:06.945Z,39.80
2023-05-05T01:51:06.900Z,39.96
2023-05-05T01:52:06.848Z,40.28
2023-05-05T01:53:06.829Z,41.25
2023-05-05T01:54:06.826Z,39.96
2023-05-05T01:55:06.851Z,44.31
2023-05-05T01:56:06.838Z,42.70
2023-05-05T01:57:06.801Z,41.57
2023-05-05T01:58:06.811Z,41.73
2023-05-05T01:59:06.788Z,39.64
2023-05-05T02:00:07.009Z,40.93
2023-05-05T02:01:06.792Z,45.12
2023-05-05T02:02:06.790Z,44.96
2023-05-05T02:03:06.902Z,46.57
2023-05-05T02:04:06.778Z,41.57
2023-05-05T02:05:06.765Z,43.99
2023-05-05T02:06:32.264Z,43.99
2023-05-05T02:07:06.726Z,44.15
2023-05-05T02:08:06.716Z,46.25
2023-05-05T02:09:06.803Z,40.44
2023-05-05T02:10:06.883Z,40.28
2023-05-05T02:11:06.692Z,38.83
2023-05-05T02:12:06.705Z,41.73
2023-05-05T02:13:06.782Z,42.86
2023-05-05T02:14:06.711Z,43.99
2023-05-05T02:15:06.663Z,44.96
2023-05-05T02:16:06.688Z,45.28
2023-05-05T02:17:06.655Z,41.89
2023-05-05T02:18:06.815Z,40.93
2023-05-05T02:19:06.657Z,42.06
2023-05-05T02:20:06.983Z,42.70
2023-05-05T02:21:06.616Z,46.41
2023-05-05T02:22:06.625Z,41.25
2023-05-05T02:23:06.638Z,41.89
2023-05-05T02:24:06.619Z,42.38
2023-05-05T02:25:06.611Z,43.02
2023-05-05T02:26:06.585Z,40.61
2023-05-05T02:27:06.589Z,41.09
2023-05-05T02:28:06.599Z,41.89
2023-05-05T02:29:06.565Z,43.34
2023-05-05T02:30:06.864Z,41.57
2023-05-05T02:31:06.581Z,42.06
2023-05-05T02:32:57.332Z,42.54
2023-05-05T02:33:06.687Z,61.07
2023-05-05T02:34:07.400Z,42.22
2023-05-05T02:35:09.399Z,46.41
2023-05-05T02:36:06.521Z,43.51
2023-05-05T02:37:06.533Z,42.86
2023-05-05T02:38:06.520Z,45.60
2023-05-05T02:39:06.504Z,47.21
2023-05-05T02:40:06.712Z,45.60
2023-05-05T02:41:06.477Z,45.60
2023-05-05T02:42:06.498Z,44.31
2023-05-05T02:43:06.516Z,43.83
2023-05-05T02:44:07.450Z,45.60
2023-05-05T02:45:06.518Z,42.22
2023-05-05T02:46:06.479Z,42.54
2023-05-05T02:47:06.473Z,43.99
2023-05-05T02:48:06.461Z,41.89
2023-05-05T02:49:06.412Z,45.28
2023-05-05T02:50:06.551Z,45.28
2023-05-05T02:51:07.399Z,42.70
2023-05-05T02:52:06.421Z,44.15
2023-05-05T02:53:06.394Z,45.60
2023-05-05T02:54:06.417Z,48.02
2023-05-05T02:55:06.376Z,46.41
2023-05-05T02:56:06.393Z,46.41
2023-05-05T02:57:06.381Z,45.44
2023-05-05T02:58:06.345Z,43.02
2023-05-05T02:59:06.328Z,44.63
2023-05-05T03:00:07.429Z,44.63
2023-05-05T03:01:06.394Z,46.41
2023-05-05T03:02:06.326Z,47.37
2023-05-05T03:03:06.422Z,46.89
2023-05-05T03:04:06.324Z,46.89
2023-05-05T03:05:06.291Z,46.08
2023-05-05T03:06:06.313Z,49.15
2023-05-05T03:07:06.271Z,46.57
2023-05-05T03:08:06.273Z,47.37
2023-05-05T03:09:06.272Z,47.53
2023-05-05T03:10:06.574Z,44.31
2023-05-05T03:11:06.270Z,44.79
2023-05-05T03:12:06.262Z,45.44
2023-05-05T03:13:06.268Z,45.92
2023-05-05T03:14:06.229Z,46.08
2023-05-05T03:15:06.244Z,47.86
2023-05-05T03:16:06.233Z,51.72
2023-05-05T03:17:06.237Z,50.76
2023-05-05T03:18:06.337Z,45.60
2023-05-05T03:19:06.184Z,45.76
2023-05-05T03:20:06.350Z,47.05
2023-05-05T03:21:06.170Z,48.18
2023-05-05T03:22:06.154Z,48.18
2023-05-05T03:23:06.150Z,53.33
2023-05-05T03:24:06.146Z,49.63
2023-05-05T03:25:06.164Z,47.37
2023-05-05T03:26:06.127Z,47.21
2023-05-05T03:27:06.128Z,49.47
2023-05-05T03:28:06.115Z,45.60
2023-05-05T03:29:06.139Z,50.43
2023-05-05T03:30:06.295Z,48.02
2023-05-05T03:31:06.097Z,46.73
2023-05-05T03:32:06.202Z,55.11
2023-05-05T03:33:06.106Z,48.82
2023-05-05T03:34:06.093Z,52.53
2023-05-05T03:35:06.083Z,50.60
2023-05-05T03:36:06.059Z,47.86
2023-05-05T03:37:06.048Z,51.40
2023-05-05T03:38:06.040Z,49.95
2023-05-05T03:39:06.126Z,49.79
2023-05-05T03:40:06.182Z,49.95
2023-05-05T03:41:06.007Z,47.86
2023-05-05T03:42:06.004Z,47.86
2023-05-05T03:43:06.000Z,49.63
2023-05-05T03:44:06.027Z,55.43
2023-05-05T03:45:05.981Z,47.86
2023-05-05T03:46:05.989Z,47.05
2023-05-05T03:47:05.973Z,44.96
2023-05-05T03:48:06.015Z,44.47
2023-05-05T03:49:05.992Z,47.86
2023-05-05T03:50:06.092Z,48.50
2023-05-05T03:51:06.004Z,49.79
2023-05-05T03:52:05.925Z,48.50
2023-05-05T03:53:05.948Z,48.02
2023-05-05T03:54:05.917Z,45.12
2023-05-05T03:55:05.900Z,50.27
2023-05-05T03:56:05.893Z,47.53
2023-05-05T03:57:05.890Z,46.08
2023-05-05T03:58:05.916Z,47.86
2023-05-05T03:59:05.873Z,47.05
2023-05-05T04:00:05.939Z,51.88
2023-05-05T04:01:05.860Z,49.79
2023-05-05T04:02:05.952Z,46.73
2023-05-05T04:03:06.002Z,46.73
2023-05-05T04:04:05.932Z,46.41
2023-05-05T04:05:05.833Z,49.15
2023-05-05T04:06:05.822Z,48.98
2023-05-05T04:07:05.871Z,50.76
2023-05-05T04:08:05.829Z,50.92
2023-05-05T04:09:05.794Z,48.98
2023-05-05T04:10:05.895Z,49.95
2023-05-05T04:11:05.792Z,48.34
2023-05-05T04:12:05.805Z,48.66
2023-05-05T04:13:05.814Z,48.18
2023-05-05T04:14:05.756Z,51.40
2023-05-05T04:15:05.754Z,48.66
2023-05-05T04:16:05.800Z,53.50
2023-05-05T04:17:05.767Z,50.76
2023-05-05T04:18:05.771Z,52.85
2023-05-05T04:19:05.725Z,46.41
2023-05-05T04:20:07.248Z,51.08
2023-05-05T04:21:05.737Z,49.47
2023-05-05T04:22:05.693Z,46.73
2023-05-05T04:23:05.757Z,51.08
2023-05-05T04:24:05.679Z,49.15
2023-05-05T04:25:05.682Z,48.82
2023-05-05T04:26:06.336Z,47.70
2023-05-05T04:27:06.027Z,48.66
2023-05-05T04:28:05.710Z,53.66
2023-05-05T04:29:05.650Z,49.47
2023-05-05T04:30:06.006Z,54.95
2023-05-05T04:31:06.006Z,51.56
2023-05-05T04:32:05.804Z,52.85
2023-05-05T04:33:05.804Z,49.31
2023-05-05T04:34:05.891Z,52.53
2023-05-05T04:35:05.746Z,49.15
2023-05-05T04:36:05.757Z,53.98
2023-05-05T04:37:05.668Z,48.50
2023-05-05T04:38:05.657Z,50.92
2023-05-05T04:39:05.700Z,43.99
2023-05-05T04:40:05.705Z,50.76
2023-05-05T04:41:05.623Z,50.60
2023-05-05T04:42:05.536Z,52.69
2023-05-05T04:43:05.568Z,54.46
2023-05-05T04:44:05.678Z,51.24
2023-05-05T04:45:05.579Z,47.21
2023-05-05T04:46:05.613Z,49.79
2023-05-05T04:47:05.624Z,51.56
2023-05-05T04:48:05.641Z,51.08
2023-05-05T04:49:05.523Z,49.79
2023-05-05T04:50:05.468Z,45.60
2023-05-05T04:51:05.473Z,48.82
2023-05-05T04:52:05.463Z,53.82
2023-05-05T04:53:05.437Z,48.82
2023-05-05T04:54:05.483Z,47.70
2023-05-05T04:55:05.430Z,53.01
2023-05-05T04:56:05.412Z,50.27
2023-05-05T04:57:05.433Z,54.46
2023-05-05T04:58:05.402Z,47.53
2023-05-05T04:59:06.272Z,50.60
2023-05-05T05:00:05.748Z,52.53
2023-05-05T05:01:05.372Z,49.95
2023-05-05T05:02:05.403Z,45.76
2023-05-05T05:03:05.449Z,48.82
2023-05-05T05:04:07.151Z,47.21
2023-05-05T05:05:06.348Z,46.08
2023-05-05T05:06:05.334Z,46.89
2023-05-05T05:07:05.337Z,51.56
2023-05-05T05:08:05.363Z,48.66
2023-05-05T05:09:05.314Z,49.15
2023-05-05T05:10:05.431Z,44.63
2023-05-05T05:11:05.298Z,48.34
2023-05-05T05:12:05.296Z,54.14
2023-05-05T05:13:05.402Z,48.34
2023-05-05T05:14:05.279Z,47.05
2023-05-05T05:15:05.284Z,44.47
2023-05-05T05:16:05.318Z,47.21
2023-05-05T05:17:05.300Z,49.79
2023-05-05T05:18:05.305Z,51.72
2023-05-05T05:19:05.276Z,44.63
2023-05-05T05:20:05.282Z,50.11
2023-05-05T05:21:05.227Z,54.95
2023-05-05T05:22:05.241Z,52.21
2023-05-05T05:23:05.230Z,49.95
2023-05-05T05:24:05.198Z,51.40
2023-05-05T05:25:05.195Z,47.37
2023-05-05T05:26:05.191Z,48.66
2023-05-05T05:27:05.604Z,53.33
2023-05-05T05:28:09.642Z,54.95
2023-05-05T05:29:07.161Z,49.15
2023-05-05T05:30:05.229Z,47.05
2023-05-05T05:31:05.164Z,46.25
2023-05-05T05:32:05.189Z,52.37
2023-05-05T05:33:05.183Z,50.27
2023-05-05T05:34:05.118Z,48.18
2023-05-05T05:35:05.124Z,46.25
2023-05-05T05:36:05.130Z,50.76
2023-05-05T05:37:37.853Z,48.50
2023-05-05T05:38:05.100Z,56.40
2023-05-05T05:39:05.083Z,53.50
2023-05-05T05:40:05.076Z,53.17
2023-05-05T05:41:05.088Z,52.05
2023-05-05T05:42:05.068Z,43.67
2023-05-05T05:43:05.070Z,54.46
2023-05-05T05:44:05.053Z,48.50
2023-05-05T05:45:05.080Z,50.43
2023-05-05T05:46:07.499Z,51.40
2023-05-05T05:47:05.028Z,49.15
2023-05-05T05:48:05.046Z,51.40
2023-05-05T05:49:05.003Z,52.53
2023-05-05T05:50:05.029Z,53.33
2023-05-05T05:51:05.024Z,50.92
2023-05-05T05:52:04.974Z,50.92
2023-05-05T05:53:04.988Z,51.40
2023-05-05T05:54:04.986Z,47.70
2023-05-05T05:55:05.998Z,52.69
2023-05-05T05:56:04.956Z,43.51
2023-05-05T05:57:04.948Z,53.33
2023-05-05T05:58:04.941Z,47.21
2023-05-05T05:59:04.942Z,50.27
2023-05-05T06:00:04.952Z,49.47
2023-05-05T06:01:04.929Z,48.18
2023-05-05T06:02:04.956Z,53.17
2023-05-05T06:03:04.960Z,52.05
2023-05-05T06:04:04.987Z,45.92
2023-05-05T06:05:04.915Z,54.62
2023-05-05T06:06:04.875Z,46.57
2023-05-05T06:07:04.872Z,51.56
2023-05-05T06:08:04.867Z,51.24
2023-05-05T06:09:04.880Z,48.02
2023-05-05T06:10:18.514Z,46.57
2023-05-05T06:11:06.835Z,45.28
2023-05-05T06:12:04.863Z,49.31
2023-05-05T06:13:04.865Z,45.92
2023-05-05T06:14:04.843Z,46.25
2023-05-05T06:15:04.808Z,44.79
2023-05-05T06:16:04.847Z,43.83
2023-05-05T06:17:04.791Z,46.08
2023-05-05T06:18:04.799Z,53.01
2023-05-05T06:19:04.794Z,43.99
2023-05-05T06:20:05.535Z,47.05
2023-05-05T06:21:04.769Z,48.82
2023-05-05T06:22:04.748Z,48.34
2023-05-05T06:23:04.775Z,45.92
2023-05-05T06:24:04.759Z,49.79
2023-05-05T06:25:04.744Z,49.79
2023-05-05T06:26:04.736Z,51.40
2023-05-05T06:27:04.710Z,47.37
2023-05-05T06:28:04.760Z,44.63
2023-05-05T06:29:04.694Z,48.34
2023-05-05T06:30:04.680Z,44.47
2023-05-05T06:31:04.700Z,45.92
2023-05-05T06:32:04.696Z,42.54
2023-05-05T06:33:04.732Z,41.89
2023-05-05T06:34:04.654Z,49.31
2023-05-05T06:35:04.672Z,48.02
2023-05-05T06:36:04.721Z,52.05
2023-05-05T06:37:04.697Z,50.43
2023-05-05T06:38:04.681Z,46.25
2023-05-05T06:39:04.644Z,44.63
2023-05-05T06:40:04.609Z,49.63
2023-05-05T06:41:04.675Z,52.85
2023-05-05T06:42:04.622Z,49.15
2023-05-05T06:43:04.607Z,52.69
2023-05-05T06:44:04.595Z,47.86
2023-05-05T06:45:04.574Z,46.25
2023-05-05T06:46:04.561Z,40.93
2023-05-05T06:47:04.625Z,50.27
2023-05-05T06:48:04.572Z,53.82
2023-05-05T06:49:04.631Z,49.31
2023-05-05T06:50:04.535Z,51.40
2023-05-05T06:51:04.685Z,52.85
2023-05-05T06:52:04.573Z,47.86
2023-05-05T06:53:04.520Z,48.18
2023-05-05T06:54:04.522Z,49.47
2023-05-05T06:55:04.512Z,48.98
2023-05-05T06:56:04.546Z,50.11
2023-05-05T06:57:04.488Z,51.56
2023-05-05T06:58:04.470Z,45.92
2023-05-05T06:59:04.461Z,44.15
2023-05-05T07:00:04.460Z,48.50
2023-05-05T07:01:04.517Z,42.06
2023-05-05T07:02:04.447Z,45.28
2023-05-05T07:03:04.467Z,49.31
2023-05-05T07:04:04.471Z,48.02
2023-05-05T07:05:04.500Z,50.92
2023-05-05T07:06:04.436Z,46.08
2023-05-05T07:07:04.599Z,41.89
2023-05-05T07:08:04.418Z,47.37
2023-05-05T07:09:04.394Z,49.79
2023-05-05T07:10:04.427Z,43.02
2023-05-05T07:11:04.424Z,42.22
2023-05-05T07:12:04.373Z,49.31
2023-05-05T07:13:04.444Z,49.31
2023-05-05T07:14:04.364Z,45.12
2023-05-05T07:15:15.494Z,50.60
2023-05-05T07:16:06.385Z,42.06
2023-05-05T07:17:04.357Z,46.08
2023-05-05T07:18:04.369Z,48.82
2023-05-05T07:19:04.338Z,47.86
2023-05-05T07:20:04.355Z,45.28
2023-05-05T07:21:04.459Z,47.70
2023-05-05T07:22:04.301Z,46.08
2023-05-05T07:23:04.369Z,43.83
2023-05-05T07:24:04.302Z,46.57
2023-05-05T07:25:04.277Z,46.57
2023-05-05T07:26:04.267Z,47.86
2023-05-05T07:27:04.257Z,49.79
2023-05-05T07:28:04.251Z,50.43
2023-05-05T07:29:04.267Z,50.27
2023-05-05T07:30:07.892Z,44.31
2023-05-05T07:31:05.221Z,46.25
2023-05-05T07:32:04.268Z,49.31
2023-05-05T07:33:04.315Z,50.92
2023-05-05T07:34:04.222Z,48.18
2023-05-05T07:35:04.199Z,46.73
2023-05-05T07:36:04.190Z,45.28
2023-05-05T07:37:05.206Z,48.02
2023-05-05T07:38:04.203Z,45.28
2023-05-05T07:39:04.269Z,50.76
2023-05-05T07:40:04.185Z,45.60
2023-05-05T07:41:04.144Z,50.11
2023-05-05T07:42:04.130Z,48.18
2023-05-05T07:43:04.147Z,51.72
2023-05-05T07:44:04.115Z,45.92
2023-05-05T07:45:04.124Z,45.44
2023-05-05T07:46:04.208Z,44.31
2023-05-05T07:47:04.128Z,48.66
2023-05-05T07:48:04.138Z,47.37
2023-05-05T07:49:04.071Z,47.70
2023-05-05T07:50:04.098Z,44.47
2023-05-05T07:51:04.058Z,42.54
2023-05-05T07:52:04.075Z,42.86
2023-05-05T07:53:13.579Z,48.66
2023-05-05T07:54:06.043Z,46.57
2023-05-05T07:55:04.133Z,43.83
2023-05-05T07:56:04.029Z,45.92
2023-05-05T07:57:04.053Z,49.31
2023-05-05T07:58:04.015Z,46.41
2023-05-05T07:59:04.014Z,49.79
2023-05-05T08:00:03.992Z,50.43
2023-05-05T08:01:04.024Z,45.28
2023-05-05T08:02:04.001Z,43.51
2023-05-05T08:03:04.070Z,48.82
2023-05-05T08:04:04.124Z,43.99
2023-05-05T08:05:03.954Z,47.05
2023-05-05T08:06:03.983Z,46.73
2023-05-05T08:07:03.945Z,48.02
2023-05-05T08:08:03.936Z,45.44
2023-05-05T08:09:03.942Z,47.05
2023-05-05T08:10:03.952Z,50.43
2023-05-05T08:11:04.030Z,43.51
2023-05-05T08:12:03.902Z,46.08
2023-05-05T08:13:03.912Z,47.86
2023-05-05T08:14:03.908Z,48.18
2023-05-05T08:15:03.931Z,53.50
2023-05-05T08:16:03.912Z,51.56
2023-05-05T08:17:03.894Z,51.24
2023-05-05T08:18:03.985Z,52.37
2023-05-05T08:19:06.242Z,52.69
2023-05-05T08:20:04.874Z,54.46
2023-05-05T08:21:03.850Z,55.27
2023-05-05T08:22:03.839Z,55.27
2023-05-05T08:23:03.826Z,52.37
2023-05-05T08:24:03.858Z,52.69
2023-05-05T08:25:03.866Z,53.50
2023-05-05T08:26:03.794Z,48.66
2023-05-05T08:27:03.902Z,49.63
2023-05-05T08:28:03.788Z,49.47
2023-05-05T08:29:03.803Z,50.11
2023-05-05T08:30:03.757Z,52.21
2023-05-05T08:31:03.771Z,53.50
2023-05-05T08:32:03.799Z,54.30
2023-05-05T08:33:03.783Z,53.01
2023-05-05T08:34:03.814Z,52.05
2023-05-05T08:35:03.720Z,53.98
2023-05-05T08:36:03.734Z,51.88
2023-05-05T08:37:03.703Z,50.92
2023-05-05T08:38:03.733Z,52.85
2023-05-05T08:39:03.709Z,53.50
2023-05-05T08:40:03.679Z,54.46
2023-05-05T08:41:03.702Z,55.75
2023-05-05T08:42:03.664Z,56.07
2023-05-05T08:43:03.855Z,55.75
2023-05-05T08:44:03.694Z,55.11
2023-05-05T08:45:03.646Z,47.70
2023-05-05T08:46:03.637Z,50.27
2023-05-05T08:47:03.786Z,49.79
2023-05-05T08:48:03.690Z,49.63
2023-05-05T08:49:03.648Z,48.02
2023-05-05T08:50:03.621Z,49.31
2023-05-05T08:51:05.356Z,48.18
2023-05-05T08:52:03.628Z,47.70
2023-05-05T08:53:03.746Z,46.41
2023-05-05T08:54:03.622Z,46.08
2023-05-05T08:55:03.566Z,44.79
2023-05-05T08:56:03.565Z,47.86
2023-05-05T08:57:03.575Z,43.18
2023-05-05T08:58:03.537Z,43.83
2023-05-05T08:59:03.654Z,45.12
2023-05-05T09:00:03.551Z,49.15
2023-05-05T09:01:03.531Z,44.47
2023-05-05T09:02:03.561Z,49.31
2023-05-05T09:03:03.552Z,50.43
2023-05-05T09:04:03.506Z,51.56
2023-05-05T09:05:03.484Z,45.12
2023-05-05T09:06:03.506Z,45.44
2023-05-05T09:07:03.494Z,49.95
2023-05-05T09:08:03.465Z,42.22
2023-05-05T09:09:03.467Z,41.57
2023-05-05T09:10:03.466Z,49.15
2023-05-05T09:11:03.733Z,49.63
2023-05-05T09:12:03.467Z,44.96
2023-05-05T09:13:03.464Z,44.79
2023-05-05T09:14:03.521Z,46.08
2023-05-05T09:15:04.320Z,42.70
2023-05-05T09:16:03.659Z,45.44
2023-05-05T09:17:03.414Z,43.18
2023-05-05T09:18:03.428Z,46.41
2023-05-05T09:19:03.392Z,44.63
2023-05-05T09:20:03.400Z,46.08
2023-05-05T09:21:03.392Z,51.88
2023-05-05T09:22:03.359Z,46.57
2023-05-05T09:23:03.353Z,51.56
2023-05-05T09:24:07.849Z,43.99
2023-05-05T09:25:05.593Z,51.56
2023-05-05T09:26:03.342Z,44.15
2023-05-05T09:27:03.323Z,46.57
2023-05-05T09:28:03.321Z,43.18
2023-05-05T09:29:03.337Z,42.06
2023-05-05T09:30:03.347Z,48.66
2023-05-05T09:31:03.401Z,47.21
2023-05-05T09:32:03.328Z,45.60
2023-05-05T09:33:03.332Z,44.31
2023-05-05T09:34:03.329Z,49.63
2023-05-05T09:35:03.286Z,45.12
2023-05-05T09:36:03.252Z,46.57
2023-05-05T09:37:03.293Z,52.37
2023-05-05T09:38:03.239Z,44.15
2023-05-05T09:39:03.262Z,49.79
2023-05-05T09:40:03.245Z,51.08
2023-05-05T09:41:03.230Z,45.28
2023-05-05T09:42:03.258Z,48.34
2023-05-05T09:43:03.360Z,51.88
2023-05-05T09:44:03.236Z,46.89
2023-05-05T09:45:03.181Z,47.86
2023-05-05T09:46:03.199Z,47.05
2023-05-05T09:47:05.681Z,49.31
2023-05-05T09:48:04.205Z,44.79
2023-05-05T09:49:03.183Z,47.21
2023-05-05T09:50:03.167Z,45.44
2023-05-05T09:51:03.147Z,44.79
2023-05-05T09:52:03.165Z,48.66
2023-05-05T09:53:03.152Z,46.25
2023-05-05T09:54:03.154Z,51.40
2023-05-05T09:55:03.116Z,44.79
2023-05-05T09:56:03.109Z,44.47
2023-05-05T09:57:03.190Z,46.08
2023-05-05T09:58:03.160Z,49.79
2023-05-05T09:59:03.122Z,45.12
2023-05-05T10:00:04.181Z,47.70
2023-05-05T10:01:03.070Z,44.63
2023-05-05T10:02:03.126Z,48.82
2023-05-05T10:03:03.416Z,45.60
2023-05-05T10:04:03.036Z,43.83
2023-05-05T10:05:03.079Z,48.98
2023-05-05T10:06:03.029Z,53.17
2023-05-05T10:07:03.057Z,47.37
2023-05-05T10:08:03.041Z,46.73
2023-05-05T10:09:03.012Z,43.67
2023-05-05T10:10:03.040Z,48.34
2023-05-05T10:11:02.990Z,47.21
2023-05-05T10:12:03.014Z,49.15
2023-05-05T10:13:03.015Z,52.85
2023-05-05T10:14:02.970Z,44.15
2023-05-05T10:15:02.970Z,43.83
2023-05-05T10:16:02.965Z,48.34
2023-05-05T10:17:03.124Z,50.27
2023-05-05T10:18:07.436Z,43.51
2023-05-05T10:19:04.995Z,46.25
2023-05-05T10:20:02.925Z,42.86
2023-05-05T10:21:02.966Z,44.79
2023-05-05T10:22:02.925Z,46.41
2023-05-05T10:23:02.908Z,47.70
2023-05-05T10:24:02.923Z,43.51
2023-05-05T10:25:02.893Z,47.05
2023-05-05T10:26:02.915Z,47.21
2023-05-05T10:27:02.866Z,47.53
2023-05-05T10:28:02.861Z,44.79
2023-05-05T10:29:02.865Z,43.51
2023-05-05T10:30:02.852Z,47.21
2023-05-05T10:31:07.670Z,49.31
2023-05-05T10:32:14.107Z,49.47
2023-05-05T10:33:18.240Z,48.98
2023-05-05T10:34:04.912Z,48.82
2023-05-05T10:35:02.932Z,45.76
2023-05-05T10:36:02.833Z,51.08
2023-05-05T10:37:02.809Z,52.69
2023-05-05T10:38:02.785Z,50.27
2023-05-05T10:39:02.790Z,49.31
2023-05-05T10:40:02.774Z,48.98
2023-05-05T10:41:02.793Z,50.92
2023-05-05T10:42:02.761Z,46.41
2023-05-05T10:43:02.748Z,45.12
2023-05-05T10:44:04.599Z,49.63
2023-05-05T10:45:03.797Z,50.11
2023-05-05T10:46:02.788Z,48.02
2023-05-05T10:47:02.734Z,43.51
2023-05-05T10:48:02.765Z,49.79
2023-05-05T10:49:02.749Z,45.60
2023-05-05T10:50:02.732Z,42.06
2023-05-05T10:51:02.867Z,48.98
2023-05-05T10:52:02.691Z,50.76
2023-05-05T10:53:02.674Z,49.31
2023-05-05T10:54:02.696Z,44.15
2023-05-05T10:55:02.687Z,45.92
2023-05-05T10:56:02.657Z,50.27
2023-05-05T10:57:02.667Z,45.92
2023-05-05T10:58:02.641Z,47.86
2023-05-05T10:59:02.653Z,44.63
2023-05-05T11:00:02.650Z,47.70
2023-05-05T11:01:02.646Z,48.82
2023-05-05T11:02:03.610Z,48.82
2023-05-05T11:03:02.707Z,49.95
2023-05-05T11:04:02.699Z,54.46
2023-05-05T11:05:02.585Z,53.01
2023-05-05T11:06:02.604Z,48.18
2023-05-05T11:07:02.624Z,53.33
2023-05-05T11:08:02.574Z,54.30
2023-05-05T11:09:02.590Z,52.21
2023-05-05T11:10:02.564Z,52.21
2023-05-05T11:11:02.549Z,53.01
2023-05-05T11:12:02.550Z,53.50
2023-05-05T11:13:02.655Z,53.50
2023-05-05T11:14:02.545Z,52.21
2023-05-05T11:15:02.519Z,54.95
2023-05-05T11:16:02.510Z,54.46
2023-05-05T11:17:02.571Z,53.98
2023-05-05T11:18:05.880Z,52.85
2023-05-05T11:19:03.507Z,52.53
2023-05-05T11:20:02.497Z,56.40
2023-05-05T11:21:02.494Z,51.88
2023-05-05T11:22:02.458Z,52.85
2023-05-05T11:23:02.551Z,50.27
2023-05-05T11:24:03.442Z,52.69
2023-05-05T11:25:02.428Z,52.69
2023-05-05T11:26:02.425Z,51.72
2023-05-05T11:27:02.424Z,52.37
2023-05-05T11:28:02.438Z,50.27
2023-05-05T11:29:02.402Z,48.82
2023-05-05T11:30:02.429Z,48.98
2023-05-05T11:31:02.406Z,53.01
2023-05-05T11:32:02.401Z,49.79
2023-05-05T11:33:02.438Z,52.37
2023-05-05T11:34:02.370Z,50.11
2023-05-05T11:35:02.351Z,52.53
2023-05-05T11:36:05.109Z,54.79
2023-05-05T11:37:03.385Z,48.18
2023-05-05T11:38:35.037Z,54.14
2023-05-05T11:39:02.331Z,56.07
2023-05-05T11:40:02.314Z,51.88
2023-05-05T11:41:02.316Z,51.08
2023-05-05T11:42:06.608Z,53.01
2023-05-05T11:43:04.309Z,55.75
2023-05-05T11:44:02.280Z,56.07
2023-05-05T11:45:02.306Z,52.05
2023-05-05T11:46:02.310Z,51.56
2023-05-05T11:47:02.301Z,55.43
2023-05-05T11:48:02.306Z,52.85
2023-05-05T11:49:02.241Z,47.05
2023-05-05T11:50:02.237Z,52.85
2023-05-05T11:51:02.257Z,55.75
2023-05-05T11:52:02.286Z,54.14
2023-05-05T11:53:02.983Z,53.50
2023-05-05T11:54:02.259Z,53.50
2023-05-05T11:55:02.201Z,52.85
2023-05-05T11:56:03.225Z,48.82
2023-05-05T11:57:02.196Z,52.69
2023-05-05T11:58:02.175Z,51.08
2023-05-05T11:59:02.164Z,50.92
2023-05-05T12:00:02.210Z,45.76
2023-05-05T12:01:02.182Z,51.40
2023-05-05T12:02:02.197Z,49.31
2023-05-05T12:03:02.348Z,53.66
2023-05-05T12:04:02.224Z,51.88
2023-05-05T12:05:02.185Z,47.37
2023-05-05T12:06:02.115Z,50.27
2023-05-05T12:07:02.121Z,50.60
2023-05-05T12:08:02.110Z,52.05
2023-05-05T12:09:02.111Z,54.62
2023-05-05T12:10:02.182Z,53.98
2023-05-05T12:11:02.074Z,55.75
2023-05-05T12:12:02.071Z,54.62
2023-05-05T12:13:02.079Z,47.70
2023-05-05T12:14:02.104Z,52.21
2023-05-05T12:15:02.076Z,50.92
2023-05-05T12:16:02.090Z,53.17
2023-05-05T12:17:02.033Z,54.14
2023-05-05T12:18:03.073Z,51.40
2023-05-05T12:19:03.051Z,47.21
2023-05-05T12:20:02.009Z,51.08
2023-05-05T12:21:02.011Z,51.88
2023-05-05T12:22:01.992Z,54.14
2023-05-05T12:23:01.990Z,49.31
2023-05-05T12:24:02.004Z,53.98
2023-05-05T12:25:01.971Z,47.70
2023-05-05T12:26:02.016Z,47.21
2023-05-05T12:27:01.949Z,47.86
2023-05-05T12:28:01.973Z,48.66
2023-05-05T12:29:01.959Z,47.53
2023-05-05T12:30:01.928Z,48.50
2023-05-05T12:31:01.994Z,46.08
2023-05-05T12:32:01.977Z,52.53
2023-05-05T12:33:01.939Z,52.05
2023-05-05T12:34:01.925Z,51.56
2023-05-05T12:35:01.901Z,45.28
2023-05-05T12:36:01.881Z,52.37
2023-05-05T12:37:01.882Z,45.92
2023-05-05T12:38:01.894Z,46.73
2023-05-05T12:39:01.872Z,47.53
2023-05-05T12:40:01.856Z,46.41
2023-05-05T12:41:01.845Z,53.01
2023-05-05T12:42:01.924Z,45.92
2023-05-05T12:43:01.864Z,47.86
2023-05-05T12:44:01.832Z,47.37
2023-05-05T12:45:01.835Z,52.37
2023-05-05T12:46:01.851Z,46.57
2023-05-05T12:47:01.828Z,51.56
2023-05-05T12:48:01.912Z,47.70
2023-05-05T12:49:01.785Z,53.33
2023-05-05T12:50:01.774Z,50.11
2023-05-05T12:51:01.776Z,52.21
2023-05-05T12:52:01.792Z,49.95